createdAt,value
2019-04-05T00:01:03.887Z,9.70
2019-04-05T00:03:33.718Z,9.70
2019-04-05T00:06:09.857Z,9.70
2019-04-05T00:08:39.669Z,9.60
2019-04-05T00:11:09.596Z,9.60
2019-04-05T00:13:39.416Z,9.60
2019-04-05T00:16:10.812Z,9.60
2019-04-05T00:18:40.608Z,9.60
2019-04-05T00:21:10.485Z,9.60
2019-04-05T00:23:41.140Z,9.60
2019-04-05T00:26:13.478Z,9.60
2019-04-05T00:28:43.302Z,9.60
2019-04-05T00:31:13.110Z,9.60
2019-04-05T00:33:42.946Z,9.60
2019-04-05T00:36:16.103Z,9.60
2019-04-05T00:38:45.906Z,9.60
2019-04-05T00:41:15.628Z,9.60
2019-04-05T00:43:45.462Z,9.60
2019-04-05T00:46:20.777Z,9.60
2019-04-05T00:48:50.649Z,9.60
2019-04-05T00:51:20.530Z,9.60
2019-04-05T00:53:50.357Z,9.60
2019-04-05T00:56:20.218Z,9.50
2019-04-05T00:58:50.021Z,9.50
2019-04-05T01:01:19.989Z,9.50
2019-04-05T01:03:49.877Z,9.50
2019-04-05T01:06:19.737Z,9.40
2019-04-05T01:08:49.615Z,9.40
2019-04-05T01:11:19.466Z,9.40
2019-04-05T01:13:49.998Z,9.40
2019-04-05T01:16:24.535Z,9.30
2019-04-05T01:18:54.386Z,9.30
2019-04-05T01:21:27.394Z,9.30
2019-04-05T01:23:58.886Z,9.30
2019-04-05T01:26:32.632Z,9.30
2019-04-05T01:29:02.419Z,9.30
2019-04-05T01:31:32.295Z,9.30
2019-04-05T01:34:02.052Z,9.20
2019-04-05T01:36:34.634Z,9.30
2019-04-05T01:39:05.897Z,9.20
2019-04-05T01:41:36.296Z,9.20
2019-04-05T01:44:06.065Z,9.10
2019-04-05T01:46:39.764Z,9.20
2019-04-05T01:49:09.520Z,9.10
2019-04-05T01:51:39.412Z,9.10
2019-04-05T01:54:09.237Z,9.10
2019-04-05T01:56:42.553Z,9.10
2019-04-05T01:59:12.374Z,9.10
2019-04-05T02:01:42.241Z,9.10
2019-04-05T02:04:12.013Z,9.00
2019-04-05T02:06:42.057Z,9.10
2019-04-05T02:09:12.310Z,9.00
2019-04-05T02:11:42.181Z,9.00
2019-04-05T02:14:12.030Z,9.00
2019-04-05T02:16:45.766Z,9.00
2019-04-05T02:19:15.606Z,9.00
2019-04-05T02:21:45.405Z,9.00
2019-04-05T02:24:15.164Z,9.00
2019-04-05T02:26:46.084Z,9.00
2019-04-05T02:29:15.946Z,9.00
2019-04-05T02:31:45.785Z,9.00
2019-04-05T02:34:15.552Z,9.00
2019-04-05T02:36:45.469Z,9.00
2019-04-05T02:39:15.305Z,9.00
2019-04-05T02:41:46.289Z,9.00
2019-04-05T02:44:16.533Z,9.00
2019-04-05T02:46:53.702Z,9.00
2019-04-05T02:49:26.395Z,9.00
2019-04-05T02:51:57.472Z,9.00
2019-04-05T02:54:27.864Z,8.90
2019-04-05T02:56:59.005Z,8.90
2019-04-05T02:59:29.917Z,8.90
2019-04-05T03:01:59.843Z,8.90
2019-04-05T03:04:30.019Z,8.90
2019-04-05T03:07:03.950Z,8.90
2019-04-05T03:09:34.602Z,8.90
2019-04-05T03:12:04.769Z,8.90
2019-04-05T03:14:35.096Z,8.90
2019-04-05T03:17:09.266Z,8.80
2019-04-05T03:19:40.227Z,8.80
2019-04-05T03:22:12.531Z,8.80
2019-04-05T03:24:45.528Z,8.80
2019-04-05T03:27:18.199Z,8.80
2019-04-05T03:29:47.916Z,8.70
2019-04-05T03:32:17.730Z,8.80
2019-04-05T03:34:48.518Z,8.70
2019-04-05T03:37:19.091Z,8.70
2019-04-05T03:39:49.053Z,8.70
2019-04-05T03:42:19.545Z,8.70
2019-04-05T03:44:49.414Z,8.70
2019-04-05T03:47:19.387Z,8.60
2019-04-05T03:49:49.295Z,8.60
2019-04-05T03:52:19.054Z,8.60
2019-04-05T03:54:49.389Z,8.60
2019-04-05T03:57:19.153Z,8.60
2019-04-05T03:59:48.983Z,8.70
2019-04-05T04:02:18.847Z,8.60
2019-04-05T04:04:48.637Z,8.60
2019-04-05T04:07:24.213Z,8.70
2019-04-05T04:09:54.041Z,8.70
2019-04-05T04:12:23.991Z,8.70
2019-04-05T04:14:54.861Z,8.60
2019-04-05T04:17:25.003Z,8.60
2019-04-05T04:19:54.719Z,8.60
2019-04-05T04:22:29.868Z,8.60
2019-04-05T04:24:59.941Z,8.60
2019-04-05T04:27:31.153Z,8.60
2019-04-05T04:30:01.522Z,8.60
2019-04-05T04:32:32.297Z,8.50
2019-04-05T04:35:03.127Z,8.50
2019-04-05T04:37:33.216Z,8.50
2019-04-05T04:40:03.441Z,8.50
2019-04-05T04:42:34.228Z,8.50
2019-04-05T04:45:11.843Z,8.50
2019-04-05T04:47:38.200Z,8.50
2019-04-05T04:50:09.903Z,8.50
2019-04-05T04:52:39.853Z,8.50
2019-04-05T04:55:10.753Z,8.40
2019-04-05T04:57:46.645Z,8.40
2019-04-05T05:00:16.559Z,8.40
2019-04-05T05:02:46.615Z,8.40
2019-04-05T05:05:16.912Z,8.40
2019-04-05T05:07:47.313Z,8.40
2019-04-05T05:10:17.201Z,8.40
2019-04-05T05:12:47.080Z,8.40
2019-04-05T05:15:17.908Z,8.40
2019-04-05T05:17:57.931Z,8.40
2019-04-05T05:20:19.555Z,8.40
2019-04-05T05:22:49.421Z,8.40
2019-04-05T05:25:19.341Z,8.40
2019-04-05T05:27:49.305Z,8.30
2019-04-05T05:30:19.180Z,8.30
2019-04-05T05:32:49.148Z,8.30
2019-04-05T05:35:19.052Z,8.30
2019-04-05T05:37:49.039Z,8.30
2019-04-05T05:40:19.207Z,8.20
2019-04-05T05:42:49.168Z,8.20
2019-04-05T05:45:19.089Z,8.30
2019-04-05T05:47:52.013Z,8.20
2019-04-05T05:50:20.280Z,8.20
2019-04-05T05:52:50.503Z,8.20
2019-04-05T05:55:20.308Z,8.20
2019-04-05T05:57:54.165Z,8.20
2019-04-05T06:00:23.131Z,8.20
2019-04-05T06:02:53.007Z,8.20
2019-04-05T06:05:22.886Z,8.20
2019-04-05T06:07:52.854Z,8.20
2019-04-05T06:10:22.732Z,8.20
2019-04-05T06:12:53.548Z,8.20
2019-04-05T06:15:30.855Z,8.20
2019-04-05T06:18:06.017Z,8.20
2019-04-05T06:20:37.867Z,8.20
2019-04-05T06:23:09.238Z,8.20
2019-04-05T06:25:40.161Z,8.20
2019-04-05T06:28:09.902Z,8.20
2019-04-05T06:30:39.732Z,8.20
2019-04-05T06:33:09.610Z,8.20
2019-04-05T06:35:39.437Z,8.20
2019-04-05T06:38:09.571Z,8.20
2019-04-05T06:40:40.978Z,8.20
2019-04-05T06:43:10.931Z,8.20
2019-04-05T06:45:40.838Z,8.10
2019-04-05T06:48:19.032Z,8.20
2019-04-05T06:50:42.008Z,8.20
2019-04-05T06:53:11.779Z,8.20
2019-04-05T06:55:43.722Z,8.20
2019-04-05T06:58:19.688Z,8.20
2019-04-05T07:00:56.941Z,8.20
2019-04-05T07:03:17.862Z,8.20
2019-04-05T07:05:47.799Z,8.30
2019-04-05T07:08:18.493Z,8.20
2019-04-05T07:10:48.464Z,8.30
2019-04-05T07:13:19.187Z,8.20
2019-04-05T07:15:49.011Z,8.30
2019-04-05T07:18:31.564Z,8.30
2019-04-05T07:20:52.395Z,8.30
2019-04-05T07:23:22.127Z,8.30
2019-04-05T07:25:51.914Z,8.30
2019-04-05T07:28:25.064Z,8.30
2019-04-05T07:30:54.659Z,8.30
2019-04-05T07:33:27.832Z,8.30
2019-04-05T07:35:57.670Z,8.30
2019-04-05T07:38:27.425Z,8.30
2019-04-05T07:40:57.255Z,8.30
2019-04-05T07:43:29.344Z,8.30
2019-04-05T07:45:59.340Z,8.30
2019-04-05T07:48:29.038Z,8.30
2019-04-05T07:50:58.925Z,8.40
2019-04-05T07:53:29.939Z,8.40
2019-04-05T07:56:00.794Z,8.40
2019-04-05T07:58:30.678Z,8.40
2019-04-05T08:01:02.000Z,8.40
2019-04-05T08:03:31.761Z,8.40
2019-04-05T08:06:02.659Z,8.40
2019-04-05T08:09:02.159Z,8.40
2019-04-05T08:11:32.479Z,8.50
2019-04-05T08:14:02.856Z,8.50
2019-04-05T08:16:32.693Z,8.50
2019-04-05T08:19:02.496Z,8.50
2019-04-05T08:21:32.286Z,8.50
2019-04-05T08:24:02.126Z,8.50
2019-04-05T08:26:32.849Z,8.60
2019-04-05T08:29:02.592Z,8.60
2019-04-05T08:31:32.528Z,8.60
2019-04-05T08:34:02.360Z,8.60
2019-04-05T08:36:34.890Z,8.60
2019-04-05T08:39:10.127Z,8.70
2019-04-05T08:41:39.913Z,8.70
2019-04-05T08:44:09.761Z,8.70
2019-04-05T08:46:40.572Z,8.70
2019-04-05T08:49:11.441Z,8.80
2019-04-05T08:51:43.267Z,8.80
2019-04-05T08:54:14.676Z,8.80
2019-04-05T08:56:44.487Z,8.80
2019-04-05T08:59:14.354Z,8.80
2019-04-05T09:01:44.088Z,8.90
2019-04-05T09:04:13.943Z,8.90
2019-04-05T09:06:43.796Z,8.90
2019-04-05T09:09:13.628Z,9.00
2019-04-05T09:11:43.458Z,9.00
2019-04-05T09:14:13.383Z,9.00
2019-04-05T09:16:43.133Z,9.10
2019-04-05T09:19:23.062Z,9.00
2019-04-05T09:21:44.265Z,9.10
2019-04-05T09:24:14.131Z,9.10
2019-04-05T09:26:43.864Z,9.10
2019-04-05T09:29:13.700Z,9.20
2019-04-05T09:31:43.443Z,9.20
2019-04-05T09:34:13.149Z,9.20
2019-04-05T09:36:43.010Z,9.20
2019-04-05T09:39:15.657Z,9.20
2019-04-05T09:41:44.395Z,9.30
2019-04-05T09:44:14.107Z,9.30
2019-04-05T09:46:50.668Z,9.30
2019-04-05T09:49:17.484Z,9.40
2019-04-05T09:51:47.341Z,9.40
2019-04-05T09:54:17.142Z,9.40
2019-04-05T09:56:47.016Z,9.40
2019-04-05T09:59:16.892Z,9.50
2019-04-05T10:01:46.611Z,9.50
2019-04-05T10:04:16.451Z,9.60
2019-04-05T10:06:46.410Z,9.60
2019-04-05T10:09:16.195Z,9.60
2019-04-05T10:11:46.104Z,9.70
2019-04-05T10:14:16.071Z,9.70
2019-04-05T10:16:46.924Z,9.70
2019-04-05T10:19:16.768Z,9.70
2019-04-05T10:21:46.554Z,9.80
2019-04-05T10:24:16.344Z,9.80
2019-04-05T10:26:47.352Z,9.80
2019-04-05T10:29:17.199Z,9.80
2019-04-05T10:31:49.375Z,9.90
2019-04-05T10:34:19.155Z,9.90
2019-04-05T10:36:48.923Z,10.00
2019-04-05T10:39:20.710Z,10.00
2019-04-05T10:42:02.722Z,10.00
2019-04-05T10:44:22.097Z,10.10
2019-04-05T10:46:52.079Z,10.10
2019-04-05T10:49:21.817Z,10.10
2019-04-05T10:51:53.692Z,10.10
2019-04-05T10:54:23.435Z,10.10
2019-04-05T10:56:55.265Z,10.20
2019-04-05T10:59:24.999Z,10.20
2019-04-05T11:01:54.776Z,10.30
2019-04-05T11:04:24.512Z,10.30
2019-04-05T11:06:54.302Z,10.30
2019-04-05T11:09:24.112Z,10.40
2019-04-05T11:11:53.879Z,10.40
2019-04-05T11:14:23.695Z,10.40
2019-04-05T11:16:58.633Z,10.40
2019-04-05T11:19:25.135Z,10.50
2019-04-05T11:21:54.899Z,10.50
2019-04-05T11:24:24.854Z,10.50
2019-04-05T11:26:55.659Z,10.60
2019-04-05T11:29:25.471Z,10.60
2019-04-05T11:31:57.443Z,10.60
2019-04-05T11:34:26.666Z,10.70
2019-04-05T11:36:56.562Z,10.70
2019-04-05T11:39:26.951Z,10.70
2019-04-05T11:41:58.238Z,10.80
2019-04-05T11:44:28.962Z,10.80
2019-04-05T11:46:58.773Z,10.80
2019-04-05T11:49:30.425Z,10.80
2019-04-05T11:52:00.301Z,10.90
2019-04-05T11:54:30.020Z,10.90
2019-04-05T11:57:06.060Z,11.00
2019-04-05T11:59:35.930Z,11.00
2019-04-05T12:02:23.327Z,11.00
2019-04-05T12:04:54.387Z,11.10
2019-04-05T12:07:26.574Z,11.10
2019-04-05T12:09:55.695Z,11.10
2019-04-05T12:12:25.681Z,11.10
2019-04-05T12:14:56.751Z,11.20
2019-04-05T12:17:26.587Z,11.20
2019-04-05T12:19:56.350Z,11.30
2019-04-05T12:22:26.151Z,11.30
2019-04-05T12:24:55.923Z,11.30
2019-04-05T12:27:25.738Z,11.40
2019-04-05T12:29:56.555Z,11.40
2019-04-05T12:32:34.600Z,11.40
2019-04-05T12:34:59.232Z,11.40
2019-04-05T12:37:28.999Z,11.50
2019-04-05T12:39:58.870Z,11.50
2019-04-05T12:42:29.030Z,11.50
2019-04-05T12:44:58.812Z,11.50
2019-04-05T12:47:28.659Z,11.60
2019-04-05T12:49:58.527Z,11.60
2019-04-05T12:52:28.379Z,11.60
2019-04-05T12:54:58.163Z,11.60
2019-04-05T13:00:17.630Z,11.70
2019-04-05T13:02:49.789Z,11.80
2019-04-05T13:05:21.254Z,11.70
2019-04-05T13:07:52.594Z,11.80
2019-04-05T13:10:25.192Z,11.80
2019-04-05T13:12:56.838Z,11.80
2019-04-05T13:15:25.543Z,11.90
2019-04-05T13:17:55.395Z,11.90
2019-04-05T13:20:25.232Z,11.90
2019-04-05T13:22:55.079Z,11.90
2019-04-05T13:25:25.024Z,11.90
2019-04-05T13:27:54.740Z,12.00
2019-04-05T13:30:24.586Z,12.00
2019-04-05T13:32:54.390Z,12.00
2019-04-05T13:35:24.173Z,12.00
2019-04-05T13:37:53.888Z,12.00
2019-04-05T13:40:23.686Z,12.10
2019-04-05T13:42:53.413Z,12.10
2019-04-05T13:45:23.278Z,12.10
2019-04-05T13:47:53.136Z,12.10
2019-04-05T13:50:22.933Z,12.20
2019-04-05T13:52:52.774Z,12.20
2019-04-05T13:55:22.606Z,12.30
2019-04-05T13:57:52.380Z,12.30
2019-04-05T14:00:22.215Z,12.30
2019-04-05T14:02:51.988Z,12.30
2019-04-05T14:05:22.705Z,12.30
2019-04-05T14:08:09.124Z,12.40
2019-04-05T14:10:24.227Z,12.40
2019-04-05T14:12:54.018Z,12.40
2019-04-05T14:15:23.801Z,12.40
2019-04-05T14:17:53.666Z,12.40
2019-04-05T14:20:24.540Z,12.50
2019-04-05T14:22:54.515Z,12.50
2019-04-05T14:25:26.074Z,12.50
2019-04-05T14:27:55.836Z,12.50
2019-04-05T14:30:25.591Z,12.50
2019-04-05T14:32:55.790Z,12.60
2019-04-05T14:35:26.722Z,12.60
2019-04-05T14:37:56.533Z,12.60
2019-04-05T14:40:28.782Z,12.60
2019-04-05T14:42:57.738Z,12.70
2019-04-05T14:45:27.561Z,12.70
2019-04-05T14:47:58.384Z,12.70
2019-04-05T14:50:28.933Z,12.70
2019-04-05T14:53:01.778Z,12.70
2019-04-05T14:55:30.625Z,12.70
2019-04-05T14:58:00.338Z,12.70
2019-04-05T15:00:30.139Z,12.70
2019-04-05T15:02:59.988Z,12.70
2019-04-05T15:05:29.782Z,12.70
2019-04-05T15:07:59.586Z,12.70
2019-04-05T15:10:29.446Z,12.80
2019-04-05T15:13:00.344Z,12.80
2019-04-05T15:15:31.256Z,12.80
2019-04-05T15:18:01.122Z,12.80
2019-04-05T15:20:32.701Z,12.80
2019-04-05T15:23:02.400Z,12.80
2019-04-05T15:25:32.189Z,12.80
2019-04-05T15:28:02.042Z,12.80
2019-04-05T15:30:31.983Z,12.80
2019-04-05T15:33:03.363Z,12.80
2019-04-05T15:35:33.220Z,12.80
2019-04-05T15:38:04.088Z,12.90
2019-04-05T15:40:33.983Z,12.90
2019-04-05T15:43:03.859Z,12.90
2019-04-05T15:45:33.668Z,12.90
2019-04-05T15:48:03.458Z,12.90
2019-04-05T15:50:33.318Z,12.90
2019-04-05T15:53:03.110Z,12.90
2019-04-05T15:55:34.999Z,12.90
2019-04-05T15:58:04.838Z,12.90
2019-04-05T16:00:45.132Z,12.90
2019-04-05T16:03:15.334Z,12.90
2019-04-05T16:05:47.766Z,12.90
2019-04-05T16:08:18.860Z,13.00
2019-04-05T16:10:49.735Z,13.10
2019-04-05T16:13:19.528Z,13.20
2019-04-05T16:16:10.249Z,13.40
2019-04-05T16:18:40.095Z,13.60
2019-04-05T16:21:09.868Z,13.70
2019-04-05T16:23:39.757Z,13.80
2019-04-05T16:26:09.490Z,13.80
2019-04-05T16:28:40.948Z,13.90
2019-04-05T16:31:11.036Z,13.90
2019-04-05T16:36:26.517Z,14.00
2019-04-05T16:38:57.280Z,14.00
2019-04-05T16:41:27.145Z,14.10
2019-04-05T16:43:56.974Z,14.10
2019-04-05T16:46:26.947Z,14.10
2019-04-05T16:48:56.771Z,14.20
2019-04-05T16:51:26.657Z,14.20
2019-04-05T16:54:00.247Z,14.20
2019-04-05T16:56:33.811Z,14.20
2019-04-05T16:59:06.587Z,14.20
2019-04-05T17:01:36.688Z,14.20
2019-04-05T17:04:06.524Z,14.20
2019-04-05T17:06:54.365Z,14.20
2019-04-05T17:09:24.143Z,14.20
2019-04-05T17:11:53.923Z,14.20
2019-04-05T17:14:23.766Z,14.20
2019-04-05T17:16:53.766Z,14.20
2019-04-05T17:19:43.368Z,14.20
2019-04-05T17:22:18.576Z,14.20
2019-04-05T17:24:52.115Z,14.20
2019-04-05T17:27:25.187Z,14.20
2019-04-05T17:29:56.598Z,14.10
2019-04-05T17:32:33.900Z,14.10
2019-04-05T17:35:09.359Z,14.10
2019-04-05T17:37:43.111Z,14.10
2019-04-05T17:40:12.952Z,14.10
2019-04-05T17:42:58.279Z,14.10
2019-04-05T17:45:31.351Z,14.10
2019-04-05T17:48:03.479Z,14.10
2019-04-05T17:50:34.379Z,14.10
2019-04-05T17:53:12.381Z,14.10
2019-04-05T17:55:53.243Z,14.00
2019-04-05T17:58:25.352Z,14.00
2019-04-05T18:00:55.280Z,14.00
2019-04-05T18:03:25.117Z,14.00
2019-04-05T18:06:03.487Z,14.00
2019-04-05T18:08:33.362Z,14.00
2019-04-05T18:11:03.519Z,14.00
2019-04-05T18:13:33.261Z,14.00
2019-04-05T18:16:40.678Z,13.90
2019-04-05T18:19:10.434Z,13.90
2019-04-05T18:21:40.269Z,13.90
2019-04-05T18:24:11.303Z,13.90
2019-04-05T18:26:41.426Z,13.80
2019-04-05T18:29:11.105Z,13.80
2019-04-05T18:31:40.986Z,13.80
2019-04-05T18:34:10.699Z,13.80
2019-04-05T18:36:41.601Z,13.80
2019-04-05T18:39:13.363Z,13.80
2019-04-05T18:41:53.134Z,13.80
2019-04-05T18:44:29.035Z,13.80
2019-04-05T18:47:04.932Z,13.80
2019-04-05T18:49:38.676Z,13.70
2019-04-05T18:52:08.542Z,13.70
2019-04-05T18:54:38.347Z,13.70
2019-04-05T19:01:03.912Z,13.70
2019-04-05T19:03:40.884Z,13.70
2019-04-05T19:06:12.750Z,13.60
2019-04-05T19:08:42.557Z,13.60
2019-04-05T19:11:13.872Z,13.60
2019-04-05T19:14:01.719Z,13.60
2019-04-05T19:16:33.651Z,13.60
2019-04-05T19:19:03.468Z,13.60
2019-04-05T19:21:34.175Z,13.60
2019-04-05T19:24:06.936Z,13.60
2019-04-05T19:26:54.656Z,13.60
2019-04-05T19:29:24.512Z,13.50
2019-04-05T19:49:48.179Z,13.50
2019-04-05T19:52:18.015Z,13.50
2019-04-05T19:54:47.890Z,13.40
2019-04-05T19:57:20.775Z,13.40
2019-04-05T19:59:50.652Z,13.40
2019-04-05T20:02:21.459Z,13.40
2019-04-05T20:04:52.383Z,13.40
2019-04-05T20:08:02.063Z,13.40
2019-04-05T20:10:31.916Z,13.40
2019-04-05T20:13:41.731Z,13.40
2019-04-05T20:16:23.903Z,13.40
2019-04-05T20:18:53.771Z,13.40
2019-04-05T20:21:23.666Z,13.30
2019-04-05T20:23:53.400Z,13.30
2019-04-05T20:26:23.306Z,13.30
2019-04-05T20:28:53.124Z,13.30
2019-04-05T20:31:23.024Z,13.20
2019-04-05T20:33:55.616Z,13.20
2019-04-05T20:36:26.575Z,13.20
2019-04-05T20:38:56.438Z,13.20
2019-04-05T20:41:26.296Z,13.20
2019-04-05T20:43:56.122Z,13.20
2019-04-05T20:46:25.926Z,13.20
2019-04-05T20:48:55.698Z,13.20
2019-04-05T20:51:27.028Z,13.10
2019-04-05T20:53:56.889Z,13.20
2019-04-05T20:56:28.736Z,13.10
2019-04-05T20:58:58.576Z,13.10
2019-04-05T21:01:28.426Z,13.10
2019-04-05T21:03:58.238Z,13.00
2019-04-05T21:06:28.123Z,13.00
2019-04-05T21:09:17.309Z,13.00
2019-04-05T21:11:49.545Z,13.00
2019-04-05T21:14:23.416Z,13.00
2019-04-05T21:16:53.345Z,13.00
2019-04-05T21:19:23.207Z,13.00
2019-04-05T21:21:53.147Z,13.00
2019-04-05T21:24:23.083Z,12.90
2019-04-05T21:27:04.836Z,13.00
2019-04-05T21:29:34.732Z,13.00
2019-04-05T21:32:04.493Z,12.90
2019-04-05T21:34:34.380Z,12.90
2019-04-05T21:37:06.789Z,12.90
2019-04-05T21:39:39.603Z,12.90
2019-04-05T21:42:10.952Z,12.90
2019-04-05T21:44:42.262Z,12.90
2019-04-05T21:47:12.066Z,12.90
2019-04-05T21:50:11.768Z,12.90
2019-04-05T21:52:41.541Z,12.80
2019-04-05T21:55:12.954Z,12.90
2019-04-05T21:57:44.853Z,12.90
2019-04-05T22:00:23.614Z,12.80
2019-04-05T22:02:57.565Z,12.90
2019-04-05T22:05:27.485Z,12.80
2019-04-05T22:07:58.899Z,12.90
2019-04-05T22:10:30.280Z,12.80
2019-04-05T22:13:04.330Z,12.90
2019-04-05T22:15:52.728Z,12.90
2019-04-05T22:18:22.583Z,12.80
2019-04-05T22:20:52.490Z,12.80
2019-04-05T22:23:22.451Z,12.80
2019-04-05T22:26:11.945Z,12.80
2019-04-05T22:28:42.421Z,12.80
2019-04-05T22:31:12.330Z,12.80
2019-04-05T22:33:42.890Z,12.80
2019-04-05T22:36:48.958Z,12.80
2019-04-05T22:39:21.533Z,12.70
2019-04-05T22:41:51.598Z,12.70
2019-04-05T22:44:21.373Z,12.70
2019-04-05T22:46:56.914Z,12.80
2019-04-05T22:49:26.750Z,12.70
2019-04-05T22:51:56.675Z,12.70
2019-04-05T22:54:26.508Z,12.70
2019-04-05T22:56:56.493Z,12.70
2019-04-05T22:59:26.416Z,12.70
2019-04-05T23:01:56.327Z,12.70
2019-04-05T23:04:26.230Z,12.60
2019-04-05T23:06:56.114Z,12.60
2019-04-05T23:09:27.080Z,12.60
2019-04-05T23:12:04.981Z,12.60
2019-04-05T23:14:34.854Z,12.60
2019-04-05T23:17:04.829Z,12.60
2019-04-05T23:19:34.758Z,12.60
2019-04-05T23:22:04.638Z,12.60
2019-04-05T23:24:40.575Z,12.60
2019-04-05T23:27:19.907Z,12.50
2019-04-05T23:29:49.778Z,12.50
2019-04-05T23:32:19.695Z,12.50
2019-04-05T23:34:49.609Z,12.50
2019-04-05T23:37:23.209Z,12.40
2019-04-05T23:39:53.068Z,12.40
2019-04-05T23:42:22.993Z,12.40
2019-04-05T23:44:52.874Z,12.40
2019-04-05T23:47:29.019Z,12.40
2019-04-05T23:49:58.926Z,12.30
2019-04-05T23:52:30.401Z,12.30
2019-04-05T23:55:00.334Z,12.30
2019-04-05T23:57:34.695Z,12.30
